Terminal Aerodrome Forecast
Issued by NWS

Home | Current Version | Previous Version | Text Only | Print | Product List | Glossary On
Versions: 1 2 3 4 5 6 7 8 9 10 11 12 13
086
FTUS46 KLOX 301737
TAFPMD
TAF
KPMD 301737Z 3018/0118 35014G19KT P6SM BKN120
     FM302100 01015KT P6SM VCTS SCT060CB BKN120
     FM010300 28010G15KT P6SM SCT060 SCT120
     FM010500 19006KT P6SM SCT120 BKN250=

USA.gov is the U.S. government's official web portal to all federal, state and local government web resources and services.